sensor_id;sensor_type;location;lat;lon;timestamp;temperature;humidity
17565;DHT22;62994;52.126;5.596;2022-10-15T00:02:13;12.80;99.90
17565;DHT22;62994;52.126;5.596;2022-10-15T00:04:42;12.90;99.90
17565;DHT22;62994;52.126;5.596;2022-10-15T00:07:15;12.90;99.90
17565;DHT22;62994;52.126;5.596;2022-10-15T00:09:44;13.00;99.90
17565;DHT22;62994;52.126;5.596;2022-10-15T00:12:11;13.10;99.90
17565;DHT22;62994;52.126;5.596;2022-10-15T00:14:43;13.10;99.90
17565;DHT22;62994;52.126;5.596;2022-10-15T00:17:12;13.10;99.90
17565;DHT22;62994;52.126;5.596;2022-10-15T00:19:40;13.20;99.90
17565;DHT22;62994;52.126;5.596;2022-10-15T00:22:12;13.30;99.90
17565;DHT22;62994;52.126;5.596;2022-10-15T00:24:41;13.30;99.90
17565;DHT22;62994;52.126;5.596;2022-10-15T00:27:08;13.30;99.90
17565;DHT22;62994;52.126;5.596;2022-10-15T00:29:44;13.30;99.90
17565;DHT22;62994;52.126;5.596;2022-10-15T00:32:17;13.30;99.90
17565;DHT22;62994;52.126;5.596;2022-10-15T00:34:46;13.40;99.90
17565;DHT22;62994;52.126;5.596;2022-10-15T00:37:13;13.40;99.90
17565;DHT22;62994;52.126;5.596;2022-10-15T00:39:43;13.50;99.90
17565;DHT22;62994;52.126;5.596;2022-10-15T00:42:12;13.50;99.90
17565;DHT22;62994;52.126;5.596;2022-10-15T00:44:52;13.50;99.90
17565;DHT22;62994;52.126;5.596;2022-10-15T00:47:23;13.50;99.90
17565;DHT22;62994;52.126;5.596;2022-10-15T00:50:02;13.50;99.90
17565;DHT22;62994;52.126;5.596;2022-10-15T00:52:36;13.50;99.90
17565;DHT22;62994;52.126;5.596;2022-10-15T00:55:08;13.60;99.90
17565;DHT22;62994;52.126;5.596;2022-10-15T00:57:36;13.50;99.90
17565;DHT22;62994;52.126;5.596;2022-10-15T01:00:15;13.50;99.90
17565;DHT22;62994;52.126;5.596;2022-10-15T01:02:43;13.50;99.90
17565;DHT22;62994;52.126;5.596;2022-10-15T01:05:12;13.50;99.90
17565;DHT22;62994;52.126;5.596;2022-10-15T01:07:41;13.50;99.90
17565;DHT22;62994;52.126;5.596;2022-10-15T01:10:10;13.60;99.90
17565;DHT22;62994;52.126;5.596;2022-10-15T01:12:52;13.60;99.90
17565;DHT22;62994;52.126;5.596;2022-10-15T01:15:26;13.60;99.90
17565;DHT22;62994;52.126;5.596;2022-10-15T01:17:58;13.70;99.90
17565;DHT22;62994;52.126;5.596;2022-10-15T01:21:02;13.70;99.90
17565;DHT22;62994;52.126;5.596;2022-10-15T01:23:59;13.60;99.90
17565;DHT22;62994;52.126;5.596;2022-10-15T01:29:47;13.70;99.90
17565;DHT22;62994;52.126;5.596;2022-10-15T01:32:33;13.60;99.90
17565;DHT22;62994;52.126;5.596;2022-10-15T01:38:02;13.60;99.90
17565;DHT22;62994;52.126;5.596;2022-10-15T01:40:35;13.60;99.90
17565;DHT22;62994;52.126;5.596;2022-10-15T01:43:10;13.60;99.90
17565;DHT22;62994;52.126;5.596;2022-10-15T01:45:40;13.50;99.90
17565;DHT22;62994;52.126;5.596;2022-10-15T01:48:12;13.50;99.90
17565;DHT22;62994;52.126;5.596;2022-10-15T01:50:56;13.50;99.90
17565;DHT22;62994;52.126;5.596;2022-10-15T01:53:26;13.50;99.90
17565;DHT22;62994;52.126;5.596;2022-10-15T01:55:56;13.60;99.90
17565;DHT22;62994;52.126;5.596;2022-10-15T01:58:30;13.50;99.90
17565;DHT22;62994;52.126;5.596;2022-10-15T02:00:58;13.60;99.90
17565;DHT22;62994;52.126;5.596;2022-10-15T02:03:29;13.60;99.90
17565;DHT22;62994;52.126;5.596;2022-10-15T02:06:05;13.60;99.90
17565;DHT22;62994;52.126;5.596;2022-10-15T02:08:42;13.50;99.90
17565;DHT22;62994;52.126;5.596;2022-10-15T02:11:12;13.50;99.90
17565;DHT22;62994;52.126;5.596;2022-10-15T02:13:45;13.50;99.90
17565;DHT22;62994;52.126;5.596;2022-10-15T02:16:29;13.50;99.90
17565;DHT22;62994;52.126;5.596;2022-10-15T02:19:02;13.50;99.90
17565;DHT22;62994;52.126;5.596;2022-10-15T02:21:34;13.50;99.90
17565;DHT22;62994;52.126;5.596;2022-10-15T02:24:08;13.50;99.90
17565;DHT22;62994;52.126;5.596;2022-10-15T02:26:36;13.50;99.90
17565;DHT22;62994;52.126;5.596;2022-10-15T02:29:15;13.50;99.90
17565;DHT22;62994;52.126;5.596;2022-10-15T02:31:45;13.50;99.90
17565;DHT22;62994;52.126;5.596;2022-10-15T02:34:16;13.60;99.90
17565;DHT22;62994;52.126;5.596;2022-10-15T02:36:49;13.60;99.90
17565;DHT22;62994;52.126;5.596;2022-10-15T02:39:21;13.60;99.90
17565;DHT22;62994;52.126;5.596;2022-10-15T02:42:03;13.60;99.90
17565;DHT22;62994;52.126;5.596;2022-10-15T02:44:31;13.60;99.90
17565;DHT22;62994;52.126;5.596;2022-10-15T02:46:58;13.60;99.90
17565;DHT22;62994;52.126;5.596;2022-10-15T02:49:33;13.60;99.90
17565;DHT22;62994;52.126;5.596;2022-10-15T02:52:05;13.50;99.90
17565;DHT22;62994;52.126;5.596;2022-10-15T02:54:32;13.70;99.90
17565;DHT22;62994;52.126;5.596;2022-10-15T02:57:09;13.70;99.90
17565;DHT22;62994;52.126;5.596;2022-10-15T02:59:38;13.70;99.90
17565;DHT22;62994;52.126;5.596;2022-10-15T03:02:05;13.60;99.90
17565;DHT22;62994;52.126;5.596;2022-10-15T03:04:38;13.70;99.90
17565;DHT22;62994;52.126;5.596;2022-10-15T03:07:06;13.70;99.90
17565;DHT22;62994;52.126;5.596;2022-10-15T03:09:36;13.70;99.90
17565;DHT22;62994;52.126;5.596;2022-10-15T03:12:03;13.70;99.90
17565;DHT22;62994;52.126;5.596;2022-10-15T03:14:30;13.70;99.90
17565;DHT22;62994;52.126;5.596;2022-10-15T03:17:12;13.70;99.90
17565;DHT22;62994;52.126;5.596;2022-10-15T03:19:40;13.70;99.90
17565;DHT22;62994;52.126;5.596;2022-10-15T03:22:07;13.60;99.90
17565;DHT22;62994;52.126;5.596;2022-10-15T03:24:34;13.60;99.90
17565;DHT22;62994;52.126;5.596;2022-10-15T03:27:06;13.50;99.90
17565;DHT22;62994;52.126;5.596;2022-10-15T03:29:33;13.40;99.90
17565;DHT22;62994;52.126;5.596;2022-10-15T03:32:03;13.30;99.90
17565;DHT22;62994;52.126;5.596;2022-10-15T03:34:30;13.30;99.90
17565;DHT22;62994;52.126;5.596;2022-10-15T03:37:00;13.20;99.90
17565;DHT22;62994;52.126;5.596;2022-10-15T03:39:28;13.20;99.90
17565;DHT22;62994;52.126;5.596;2022-10-15T03:42:06;13.30;99.90
17565;DHT22;62994;52.126;5.596;2022-10-15T03:44:33;13.20;99.90
17565;DHT22;62994;52.126;5.596;2022-10-15T03:47:03;13.30;99.90
17565;DHT22;62994;52.126;5.596;2022-10-15T03:49:31;13.30;99.90
17565;DHT22;62994;52.126;5.596;2022-10-15T03:51:59;13.20;99.90
17565;DHT22;62994;52.126;5.596;2022-10-15T03:54:34;13.10;99.90
17565;DHT22;62994;52.126;5.596;2022-10-15T03:57:02;13.10;99.90
17565;DHT22;62994;52.126;5.596;2022-10-15T03:59:30;13.00;99.90
17565;DHT22;62994;52.126;5.596;2022-10-15T04:01:57;13.00;99.90
17565;DHT22;62994;52.126;5.596;2022-10-15T04:04:30;12.90;99.90
17565;DHT22;62994;52.126;5.596;2022-10-15T04:06:58;12.90;99.90
17565;DHT22;62994;52.126;5.596;2022-10-15T04:09:26;12.90;99.90
17565;DHT22;62994;52.126;5.596;2022-10-15T04:11:53;12.90;99.90
17565;DHT22;62994;52.126;5.596;2022-10-15T04:14:20;12.90;99.90
17565;DHT22;62994;52.126;5.596;2022-10-15T04:16:52;12.90;99.90
17565;DHT22;62994;52.126;5.596;2022-10-15T04:19:19;13.00;99.90
17565;DHT22;62994;52.126;5.596;2022-10-15T04:21:48;13.00;99.90
17565;DHT22;62994;52.126;5.596;2022-10-15T04:24:17;13.00;99.90
17565;DHT22;62994;52.126;5.596;2022-10-15T04:26:44;13.00;99.90
17565;DHT22;62994;52.126;5.596;2022-10-15T04:29:16;13.10;99.90
17565;DHT22;62994;52.126;5.596;2022-10-15T04:31:43;13.00;99.90
17565;DHT22;62994;52.126;5.596;2022-10-15T04:34:17;13.00;99.90
17565;DHT22;62994;52.126;5.596;2022-10-15T04:36:44;13.00;99.90
17565;DHT22;62994;52.126;5.596;2022-10-15T04:39:11;13.00;99.90
17565;DHT22;62994;52.126;5.596;2022-10-15T04:41:39;13.00;99.90
17565;DHT22;62994;52.126;5.596;2022-10-15T04:44:08;13.00;99.90
17565;DHT22;62994;52.126;5.596;2022-10-15T04:46:40;12.90;99.90
17565;DHT22;62994;52.126;5.596;2022-10-15T04:49:21;12.90;99.90
17565;DHT22;62994;52.126;5.596;2022-10-15T04:51:50;12.90;99.90
17565;DHT22;62994;52.126;5.596;2022-10-15T04:54:19;12.90;99.90
17565;DHT22;62994;52.126;5.596;2022-10-15T04:56:47;12.90;99.90
17565;DHT22;62994;52.126;5.596;2022-10-15T04:59:14;13.10;99.90
17565;DHT22;62994;52.126;5.596;2022-10-15T05:01:57;13.10;99.90
17565;DHT22;62994;52.126;5.596;2022-10-15T05:04:26;13.10;99.90
17565;DHT22;62994;52.126;5.596;2022-10-15T05:06:54;13.20;99.90
17565;DHT22;62994;52.126;5.596;2022-10-15T05:09:21;13.20;99.90
17565;DHT22;62994;52.126;5.596;2022-10-15T05:11:50;13.30;99.90
17565;DHT22;62994;52.126;5.596;2022-10-15T05:14:31;13.30;99.90
17565;DHT22;62994;52.126;5.596;2022-10-15T05:17:00;13.30;99.90
17565;DHT22;62994;52.126;5.596;2022-10-15T05:19:27;13.40;99.90
17565;DHT22;62994;52.126;5.596;2022-10-15T05:21:54;13.50;99.90
17565;DHT22;62994;52.126;5.596;2022-10-15T05:24:40;13.40;99.90
17565;DHT22;62994;52.126;5.596;2022-10-15T05:27:11;13.50;99.90
17565;DHT22;62994;52.126;5.596;2022-10-15T05:29:40;13.50;99.90
17565;DHT22;62994;52.126;5.596;2022-10-15T05:32:13;13.50;99.90
17565;DHT22;62994;52.126;5.596;2022-10-15T05:34:44;13.50;99.90
17565;DHT22;62994;52.126;5.596;2022-10-15T05:37:12;13.50;99.90
17565;DHT22;62994;52.126;5.596;2022-10-15T05:39:49;13.50;99.90
17565;DHT22;62994;52.126;5.596;2022-10-15T05:42:17;13.60;99.90
17565;DHT22;62994;52.126;5.596;2022-10-15T05:44:44;13.60;99.90
17565;DHT22;62994;52.126;5.596;2022-10-15T05:47:11;13.60;99.90
17565;DHT22;62994;52.126;5.596;2022-10-15T05:49:43;13.70;99.90
17565;DHT22;62994;52.126;5.596;2022-10-15T05:52:10;13.70;99.90
17565;DHT22;62994;52.126;5.596;2022-10-15T05:54:47;13.70;99.90
17565;DHT22;62994;52.126;5.596;2022-10-15T06:00:12;13.50;99.90
17565;DHT22;62994;52.126;5.596;2022-10-15T06:02:39;13.60;99.90
17565;DHT22;62994;52.126;5.596;2022-10-15T06:05:06;13.60;99.90
17565;DHT22;62994;52.126;5.596;2022-10-15T06:07:33;13.60;99.90
17565;DHT22;62994;52.126;5.596;2022-10-15T06:10:01;13.80;99.90
17565;DHT22;62994;52.126;5.596;2022-10-15T06:12:28;13.60;99.90
17565;DHT22;62994;52.126;5.596;2022-10-15T06:14:55;13.60;99.90
17565;DHT22;62994;52.126;5.596;2022-10-15T06:17:23;13.50;99.90
17565;DHT22;62994;52.126;5.596;2022-10-15T06:19:50;13.50;99.90
17565;DHT22;62994;52.126;5.596;2022-10-15T06:22:17;13.60;99.90
17565;DHT22;62994;52.126;5.596;2022-10-15T06:24:44;13.50;99.90
17565;DHT22;62994;52.126;5.596;2022-10-15T06:27:11;13.50;99.90
17565;DHT22;62994;52.126;5.596;2022-10-15T06:29:38;13.60;99.90
17565;DHT22;62994;52.126;5.596;2022-10-15T06:32:08;13.70;99.90
17565;DHT22;62994;52.126;5.596;2022-10-15T06:34:36;13.80;99.90
17565;DHT22;62994;52.126;5.596;2022-10-15T06:37:03;13.80;99.90
17565;DHT22;62994;52.126;5.596;2022-10-15T06:39:30;13.90;99.90
17565;DHT22;62994;52.126;5.596;2022-10-15T06:41:57;13.80;99.90
17565;DHT22;62994;52.126;5.596;2022-10-15T06:44:24;13.70;99.90
17565;DHT22;62994;52.126;5.596;2022-10-15T06:46:53;13.60;99.90
17565;DHT22;62994;52.126;5.596;2022-10-15T06:49:20;13.80;99.90
17565;DHT22;62994;52.126;5.596;2022-10-15T06:51:49;13.80;99.90
17565;DHT22;62994;52.126;5.596;2022-10-15T06:54:15;13.80;99.90
17565;DHT22;62994;52.126;5.596;2022-10-15T06:56:43;13.90;99.90
17565;DHT22;62994;52.126;5.596;2022-10-15T06:59:10;14.00;99.90
17565;DHT22;62994;52.126;5.596;2022-10-15T07:01:37;14.00;99.90
17565;DHT22;62994;52.126;5.596;2022-10-15T07:04:04;14.10;99.90
17565;DHT22;62994;52.126;5.596;2022-10-15T07:06:30;14.20;99.90
17565;DHT22;62994;52.126;5.596;2022-10-15T07:09:00;14.30;99.90
17565;DHT22;62994;52.126;5.596;2022-10-15T07:11:27;14.30;99.90
17565;DHT22;62994;52.126;5.596;2022-10-15T07:13:54;14.30;99.90
17565;DHT22;62994;52.126;5.596;2022-10-15T07:16:23;14.40;99.90
17565;DHT22;62994;52.126;5.596;2022-10-15T07:18:51;14.40;99.90
17565;DHT22;62994;52.126;5.596;2022-10-15T07:21:18;14.50;99.90
17565;DHT22;62994;52.126;5.596;2022-10-15T07:23:45;14.60;99.90
17565;DHT22;62994;52.126;5.596;2022-10-15T07:26:13;14.70;99.90
17565;DHT22;62994;52.126;5.596;2022-10-15T07:28:40;14.60;99.90
17565;DHT22;62994;52.126;5.596;2022-10-15T07:31:07;14.60;99.90
17565;DHT22;62994;52.126;5.596;2022-10-15T07:33:34;14.60;99.90
17565;DHT22;62994;52.126;5.596;2022-10-15T07:36:02;14.60;99.90
17565;DHT22;62994;52.126;5.596;2022-10-15T07:38:30;14.60;99.90
17565;DHT22;62994;52.126;5.596;2022-10-15T07:40:58;14.70;99.90
17565;DHT22;62994;52.126;5.596;2022-10-15T07:43:27;14.70;99.90
17565;DHT22;62994;52.126;5.596;2022-10-15T07:45:54;14.70;99.90
17565;DHT22;62994;52.126;5.596;2022-10-15T07:48:21;14.70;99.90
17565;DHT22;62994;52.126;5.596;2022-10-15T07:50:53;14.80;99.90
17565;DHT22;62994;52.126;5.596;2022-10-15T07:53:20;15.00;99.90
17565;DHT22;62994;52.126;5.596;2022-10-15T07:55:47;15.00;99.90
17565;DHT22;62994;52.126;5.596;2022-10-15T07:58:14;15.10;99.90
17565;DHT22;62994;52.126;5.596;2022-10-15T08:00:43;15.20;99.90
17565;DHT22;62994;52.126;5.596;2022-10-15T08:03:10;15.20;99.90
17565;DHT22;62994;52.126;5.596;2022-10-15T08:05:36;15.10;99.90
17565;DHT22;62994;52.126;5.596;2022-10-15T08:08:04;15.30;99.90
17565;DHT22;62994;52.126;5.596;2022-10-15T08:10:30;15.40;99.90
17565;DHT22;62994;52.126;5.596;2022-10-15T08:12:57;15.30;99.90
17565;DHT22;62994;52.126;5.596;2022-10-15T08:15:24;15.30;99.90
17565;DHT22;62994;52.126;5.596;2022-10-15T08:17:53;15.30;99.90
17565;DHT22;62994;52.126;5.596;2022-10-15T08:20:19;15.40;99.90
17565;DHT22;62994;52.126;5.596;2022-10-15T08:22:46;15.50;99.90
17565;DHT22;62994;52.126;5.596;2022-10-15T08:25:13;15.50;99.90
17565;DHT22;62994;52.126;5.596;2022-10-15T08:27:40;15.50;99.90
17565;DHT22;62994;52.126;5.596;2022-10-15T08:30:08;15.50;99.90
17565;DHT22;62994;52.126;5.596;2022-10-15T08:32:35;15.50;99.90
17565;DHT22;62994;52.126;5.596;2022-10-15T08:35:04;15.60;99.90
17565;DHT22;62994;52.126;5.596;2022-10-15T08:37:31;15.60;99.90
17565;DHT22;62994;52.126;5.596;2022-10-15T08:39:58;15.60;99.90
17565;DHT22;62994;52.126;5.596;2022-10-15T08:42:29;15.70;99.90
17565;DHT22;62994;52.126;5.596;2022-10-15T08:44:59;15.70;99.90
17565;DHT22;62994;52.126;5.596;2022-10-15T08:47:31;15.70;99.90
17565;DHT22;62994;52.126;5.596;2022-10-15T08:50:04;15.70;99.90
17565;DHT22;62994;52.126;5.596;2022-10-15T08:52:39;15.70;99.90
17565;DHT22;62994;52.126;5.596;2022-10-15T08:55:09;15.80;99.90
17565;DHT22;62994;52.126;5.596;2022-10-15T08:57:43;15.80;99.90
17565;DHT22;62994;52.126;5.596;2022-10-15T09:00:16;15.80;99.90
17565;DHT22;62994;52.126;5.596;2022-10-15T09:02:49;15.80;99.90
17565;DHT22;62994;52.126;5.596;2022-10-15T09:05:35;15.80;99.90
17565;DHT22;62994;52.126;5.596;2022-10-15T09:08:15;16.00;99.90
17565;DHT22;62994;52.126;5.596;2022-10-15T09:10:46;16.00;99.90
17565;DHT22;62994;52.126;5.596;2022-10-15T09:13:20;16.10;99.90
17565;DHT22;62994;52.126;5.596;2022-10-15T09:15:53;16.00;99.90
17565;DHT22;62994;52.126;5.596;2022-10-15T09:18:23;16.00;99.90
17565;DHT22;62994;52.126;5.596;2022-10-15T09:20:56;16.20;99.90
17565;DHT22;62994;52.126;5.596;2022-10-15T09:23:26;16.30;99.90
17565;DHT22;62994;52.126;5.596;2022-10-15T09:25:59;16.40;99.90
17565;DHT22;62994;52.126;5.596;2022-10-15T09:28:35;16.40;99.90
17565;DHT22;62994;52.126;5.596;2022-10-15T09:31:04;16.50;99.90
17565;DHT22;62994;52.126;5.596;2022-10-15T09:33:37;16.50;99.90
17565;DHT22;62994;52.126;5.596;2022-10-15T09:36:16;16.60;99.90
17565;DHT22;62994;52.126;5.596;2022-10-15T09:38:52;16.70;99.90
17565;DHT22;62994;52.126;5.596;2022-10-15T09:41:29;16.80;99.90
17565;DHT22;62994;52.126;5.596;2022-10-15T09:44:01;16.90;99.90
17565;DHT22;62994;52.126;5.596;2022-10-15T09:46:29;17.00;99.90
17565;DHT22;62994;52.126;5.596;2022-10-15T09:49:02;17.00;99.90
17565;DHT22;62994;52.126;5.596;2022-10-15T09:51:35;16.90;99.90
17565;DHT22;62994;52.126;5.596;2022-10-15T09:54:10;16.90;99.90
17565;DHT22;62994;52.126;5.596;2022-10-15T09:56:44;16.90;99.90
17565;DHT22;62994;52.126;5.596;2022-10-15T09:59:15;16.90;99.90
17565;DHT22;62994;52.126;5.596;2022-10-15T10:01:56;17.00;99.90
17565;DHT22;62994;52.126;5.596;2022-10-15T10:04:26;17.30;99.90
17565;DHT22;62994;52.126;5.596;2022-10-15T10:06:56;17.50;99.90
17565;DHT22;62994;52.126;5.596;2022-10-15T10:09:26;17.40;99.90
17565;DHT22;62994;52.126;5.596;2022-10-15T10:11:58;17.40;99.90
17565;DHT22;62994;52.126;5.596;2022-10-15T10:14:28;17.30;99.90
17565;DHT22;62994;52.126;5.596;2022-10-15T10:17:14;17.30;99.90
17565;DHT22;62994;52.126;5.596;2022-10-15T10:19:42;17.40;99.90
17565;DHT22;62994;52.126;5.596;2022-10-15T10:22:15;17.50;99.90
17565;DHT22;62994;52.126;5.596;2022-10-15T10:24:43;17.40;99.90
17565;DHT22;62994;52.126;5.596;2022-10-15T10:27:21;17.30;99.90
17565;DHT22;62994;52.126;5.596;2022-10-15T10:29:53;17.20;99.90
17565;DHT22;62994;52.126;5.596;2022-10-15T10:32:22;17.10;99.90
17565;DHT22;62994;52.126;5.596;2022-10-15T10:34:52;16.90;99.90
17565;DHT22;62994;52.126;5.596;2022-10-15T10:37:21;16.70;99.90
17565;DHT22;62994;52.126;5.596;2022-10-15T10:39:53;16.60;99.90
17565;DHT22;62994;52.126;5.596;2022-10-15T10:42:27;16.70;99.90
17565;DHT22;62994;52.126;5.596;2022-10-15T10:45:18;16.60;99.90
17565;DHT22;62994;52.126;5.596;2022-10-15T10:47:46;16.50;99.90
17565;DHT22;62994;52.126;5.596;2022-10-15T10:50:30;16.40;99.90
17565;DHT22;62994;52.126;5.596;2022-10-15T10:53:15;16.50;99.90
17565;DHT22;62994;52.126;5.596;2022-10-15T10:55:44;16.40;99.90
17565;DHT22;62994;52.126;5.596;2022-10-15T10:58:17;16.20;99.90
17565;DHT22;62994;52.126;5.596;2022-10-15T11:00:46;16.20;99.90
17565;DHT22;62994;52.126;5.596;2022-10-15T11:03:21;16.20;99.90
17565;DHT22;62994;52.126;5.596;2022-10-15T11:05:49;16.20;99.90
17565;DHT22;62994;52.126;5.596;2022-10-15T11:08:26;16.10;99.90
17565;DHT22;62994;52.126;5.596;2022-10-15T11:11:01;16.10;99.90
17565;DHT22;62994;52.126;5.596;2022-10-15T11:13:39;16.00;99.90
17565;DHT22;62994;52.126;5.596;2022-10-15T11:16:16;15.80;99.90
17565;DHT22;62994;52.126;5.596;2022-10-15T11:19:01;15.70;99.90
17565;DHT22;62994;52.126;5.596;2022-10-15T11:21:41;15.70;99.90
17565;DHT22;62994;52.126;5.596;2022-10-15T11:24:16;15.90;99.90
17565;DHT22;62994;52.126;5.596;2022-10-15T11:27:03;16.00;99.90
17565;DHT22;62994;52.126;5.596;2022-10-15T11:29:37;16.10;99.90
17565;DHT22;62994;52.126;5.596;2022-10-15T11:32:15;16.20;99.90
17565;DHT22;62994;52.126;5.596;2022-10-15T11:34:57;16.20;99.90
17565;DHT22;62994;52.126;5.596;2022-10-15T11:37:36;16.20;99.90
17565;DHT22;62994;52.126;5.596;2022-10-15T11:40:13;16.20;99.90
17565;DHT22;62994;52.126;5.596;2022-10-15T11:42:50;16.20;99.90
17565;DHT22;62994;52.126;5.596;2022-10-15T11:45:52;16.20;99.90
17565;DHT22;62994;52.126;5.596;2022-10-15T11:48:36;16.30;99.90
17565;DHT22;62994;52.126;5.596;2022-10-15T11:51:10;16.30;99.90
17565;DHT22;62994;52.126;5.596;2022-10-15T11:56:40;16.30;99.90
17565;DHT22;62994;52.126;5.596;2022-10-15T11:59:21;16.40;99.90
17565;DHT22;62994;52.126;5.596;2022-10-15T12:01:56;16.50;99.90
17565;DHT22;62994;52.126;5.596;2022-10-15T12:04:29;16.50;99.90
17565;DHT22;62994;52.126;5.596;2022-10-15T12:07:02;16.60;99.90
17565;DHT22;62994;52.126;5.596;2022-10-15T12:09:34;16.70;99.90
17565;DHT22;62994;52.126;5.596;2022-10-15T12:12:09;16.80;99.90
17565;DHT22;62994;52.126;5.596;2022-10-15T12:14:40;16.80;99.90
17565;DHT22;62994;52.126;5.596;2022-10-15T12:17:15;16.80;99.90
17565;DHT22;62994;52.126;5.596;2022-10-15T12:19:48;16.90;99.90
17565;DHT22;62994;52.126;5.596;2022-10-15T12:22:32;16.70;99.90
17565;DHT22;62994;52.126;5.596;2022-10-15T12:24:59;16.80;99.90
17565;DHT22;62994;52.126;5.596;2022-10-15T12:27:30;16.80;99.90
17565;DHT22;62994;52.126;5.596;2022-10-15T12:30:23;16.90;99.90
17565;DHT22;62994;52.126;5.596;2022-10-15T12:32:52;17.00;99.90
17565;DHT22;62994;52.126;5.596;2022-10-15T12:35:29;17.30;99.90
17565;DHT22;62994;52.126;5.596;2022-10-15T12:38:09;17.20;99.90
17565;DHT22;62994;52.126;5.596;2022-10-15T12:40:38;17.20;99.90
17565;DHT22;62994;52.126;5.596;2022-10-15T12:43:13;17.10;99.90
17565;DHT22;62994;52.126;5.596;2022-10-15T12:45:48;17.20;99.90
17565;DHT22;62994;52.126;5.596;2022-10-15T12:48:34;17.10;99.90
17565;DHT22;62994;52.126;5.596;2022-10-15T12:54:34;17.00;99.90
17565;DHT22;62994;52.126;5.596;2022-10-15T12:57:13;17.00;99.90
17565;DHT22;62994;52.126;5.596;2022-10-15T12:59:56;17.00;99.90
17565;DHT22;62994;52.126;5.596;2022-10-15T13:02:36;17.00;99.90
17565;DHT22;62994;52.126;5.596;2022-10-15T13:05:06;16.90;99.90
17565;DHT22;62994;52.126;5.596;2022-10-15T13:07:37;16.90;99.90
17565;DHT22;62994;52.126;5.596;2022-10-15T13:10:17;16.90;99.90
17565;DHT22;62994;52.126;5.596;2022-10-15T13:12:47;17.00;99.90
17565;DHT22;62994;52.126;5.596;2022-10-15T13:15:23;17.00;99.90
17565;DHT22;62994;52.126;5.596;2022-10-15T13:17:51;17.10;99.90
17565;DHT22;62994;52.126;5.596;2022-10-15T13:20:31;17.10;99.90
17565;DHT22;62994;52.126;5.596;2022-10-15T13:23:09;17.00;99.90
17565;DHT22;62994;52.126;5.596;2022-10-15T13:25:42;17.10;99.90
17565;DHT22;62994;52.126;5.596;2022-10-15T13:28:28;17.10;99.90
17565;DHT22;62994;52.126;5.596;2022-10-15T13:30:57;17.10;99.90
17565;DHT22;62994;52.126;5.596;2022-10-15T13:33:24;17.10;99.90
17565;DHT22;62994;52.126;5.596;2022-10-15T13:35:51;17.10;99.90
17565;DHT22;62994;52.126;5.596;2022-10-15T13:38:20;17.20;99.90
17565;DHT22;62994;52.126;5.596;2022-10-15T13:40:48;17.20;99.90
17565;DHT22;62994;52.126;5.596;2022-10-15T13:43:21;17.20;99.90
17565;DHT22;62994;52.126;5.596;2022-10-15T13:45:52;17.10;99.90
17565;DHT22;62994;52.126;5.596;2022-10-15T13:48:23;17.20;99.90
17565;DHT22;62994;52.126;5.596;2022-10-15T13:50:52;17.20;99.90
17565;DHT22;62994;52.126;5.596;2022-10-15T13:53:24;17.20;99.90
17565;DHT22;62994;52.126;5.596;2022-10-15T13:55:54;17.10;99.90
17565;DHT22;62994;52.126;5.596;2022-10-15T13:58:24;17.10;99.90
17565;DHT22;62994;52.126;5.596;2022-10-15T14:00:56;17.20;99.90
17565;DHT22;62994;52.126;5.596;2022-10-15T14:03:26;17.40;99.90
17565;DHT22;62994;52.126;5.596;2022-10-15T14:05:54;17.50;99.90
17565;DHT22;62994;52.126;5.596;2022-10-15T14:08:25;17.40;99.90
17565;DHT22;62994;52.126;5.596;2022-10-15T14:10:53;17.40;99.90
17565;DHT22;62994;52.126;5.596;2022-10-15T14:13:21;17.40;99.90
17565;DHT22;62994;52.126;5.596;2022-10-15T14:15:58;17.30;99.90
17565;DHT22;62994;52.126;5.596;2022-10-15T14:18:31;17.40;99.90
17565;DHT22;62994;52.126;5.596;2022-10-15T14:21:00;17.40;99.90
17565;DHT22;62994;52.126;5.596;2022-10-15T14:23:28;17.40;99.90
17565;DHT22;62994;52.126;5.596;2022-10-15T14:25:56;17.50;99.90
17565;DHT22;62994;52.126;5.596;2022-10-15T14:28:24;17.50;99.90
17565;DHT22;62994;52.126;5.596;2022-10-15T14:30:52;17.60;99.90
17565;DHT22;62994;52.126;5.596;2022-10-15T14:33:32;17.70;99.90
17565;DHT22;62994;52.126;5.596;2022-10-15T14:36:05;17.60;99.90
17565;DHT22;62994;52.126;5.596;2022-10-15T14:38:32;17.70;99.90
17565;DHT22;62994;52.126;5.596;2022-10-15T14:41:01;17.80;99.90
17565;DHT22;62994;52.126;5.596;2022-10-15T14:43:32;17.80;99.90
17565;DHT22;62994;52.126;5.596;2022-10-15T14:46:01;17.80;99.90
17565;DHT22;62994;52.126;5.596;2022-10-15T14:48:32;18.00;99.90
17565;DHT22;62994;52.126;5.596;2022-10-15T14:51:02;18.00;99.90
17565;DHT22;62994;52.126;5.596;2022-10-15T14:53:32;18.00;99.90
17565;DHT22;62994;52.126;5.596;2022-10-15T14:56:03;18.00;99.90
17565;DHT22;62994;52.126;5.596;2022-10-15T14:58:31;17.80;99.90
17565;DHT22;62994;52.126;5.596;2022-10-15T15:00:59;17.60;99.90
17565;DHT22;62994;52.126;5.596;2022-10-15T15:03:32;17.40;99.90
17565;DHT22;62994;52.126;5.596;2022-10-15T15:06:04;17.20;99.90
17565;DHT22;62994;52.126;5.596;2022-10-15T15:08:31;17.20;99.90
17565;DHT22;62994;52.126;5.596;2022-10-15T15:11:01;17.30;99.90
17565;DHT22;62994;52.126;5.596;2022-10-15T15:13:30;17.20;99.90
17565;DHT22;62994;52.126;5.596;2022-10-15T15:15:57;17.20;99.90
17565;DHT22;62994;52.126;5.596;2022-10-15T15:18:24;17.10;99.90
17565;DHT22;62994;52.126;5.596;2022-10-15T15:20:58;17.00;99.90
17565;DHT22;62994;52.126;5.596;2022-10-15T15:23:26;16.90;99.90
17565;DHT22;62994;52.126;5.596;2022-10-15T15:25:54;16.80;99.90
17565;DHT22;62994;52.126;5.596;2022-10-15T15:28:23;16.80;99.90
17565;DHT22;62994;52.126;5.596;2022-10-15T15:30:55;16.60;99.90
17565;DHT22;62994;52.126;5.596;2022-10-15T15:33:22;16.60;99.90
17565;DHT22;62994;52.126;5.596;2022-10-15T15:35:51;16.50;99.90
17565;DHT22;62994;52.126;5.596;2022-10-15T15:38:21;16.40;99.90
17565;DHT22;62994;52.126;5.596;2022-10-15T15:40:48;16.30;99.90
17565;DHT22;62994;52.126;5.596;2022-10-15T15:43:17;16.20;99.90
17565;DHT22;62994;52.126;5.596;2022-10-15T15:45:45;16.20;99.90
17565;DHT22;62994;52.126;5.596;2022-10-15T15:48:12;16.20;99.90
17565;DHT22;62994;52.126;5.596;2022-10-15T15:50:39;16.30;99.90
17565;DHT22;62994;52.126;5.596;2022-10-15T15:53:07;16.30;99.90
17565;DHT22;62994;52.126;5.596;2022-10-15T15:55:35;16.20;99.90
17565;DHT22;62994;52.126;5.596;2022-10-15T15:58:02;16.10;99.90
17565;DHT22;62994;52.126;5.596;2022-10-15T16:00:29;16.10;99.90
17565;DHT22;62994;52.126;5.596;2022-10-15T16:02:56;16.10;99.90
17565;DHT22;62994;52.126;5.596;2022-10-15T16:05:23;15.90;99.90
17565;DHT22;62994;52.126;5.596;2022-10-15T16:07:50;15.90;99.90
17565;DHT22;62994;52.126;5.596;2022-10-15T16:10:17;15.80;99.90
17565;DHT22;62994;52.126;5.596;2022-10-15T16:12:47;15.70;99.90